Forside
METAR-TAF:

METAR-TAF

Lufthavne :

Ramsar, Iran

Breddekreds: 36-54N, længdekreds: 050-40E, højde: -23 m

Aktuelle vejr

Denne rapport blev lavet for 2 timer og 54 minutter siden, kl. 21:00 UTC
Vind 4 kt fra vestsydvest
Temperatur 28°C
Fugtighed 70%
Tryk 1002 hPa
Sigt 10 km eller mere
Nogle få skyer i en højde af 2500 ft, Cumulonimbus.
Brudte skyer i en højde af 2700 ft

METAR: OINR 162100Z 24004KT 9999 FEW025CB BKN027 28/22 Q1002

Tid: 04:24 (23:54 UTC)


TAF: fraværende

Vejrobservationer og prognoser fra mere end 4000 lufthavne (METAR og TAF).

De gule og røde prikker repræsenterer de meteorologiske stationer.

Flyt musen over at se navnet på stationen.

Så klik over at se vejr observationer og prognoser.

At skifte det kort: Klik på de grønne knapper med et sort kors for at zoome ind; på den grønne knap med en bindestreg for at zoome ud; eller på de grønne pile for tilstødende kort.


METAR-TAF: